TimeCDT,TemperatureF,Dew PointF,Humidity,Sea Level PressureIn,VisibilityMPH,Wind Direction,Wind SpeedMPH,Gust SpeedMPH,PrecipitationIn,Events,Conditions,WindDirDegrees,DateUTC
12:03 AM,46.4,46.4,100,30.06,1.8,East,5.8,-,N/A,,Overcast,80,2013-04-17 05:03:00
12:23 AM,46.4,46.4,100,30.05,1.0,ENE,5.8,-,N/A,,Mist,70,2013-04-17 05:23:00
12:28 AM,46.4,46.4,100,30.05,1.0,ENE,4.6,-,N/A,,Mist,70,2013-04-17 05:28:00
12:38 AM,46.4,46.4,100,30.05,0.8,ENE,6.9,-,N/A,,Mist,70,2013-04-17 05:38:00
12:58 AM,46.4,46.4,100,30.07,0.8,East,8.1,-,N/A,,Mist,80,2013-04-17 05:58:00
1:58 AM,46.6,46.6,100,30.07,0.5,ENE,5.8,-,N/A,Fog,Fog,60,2013-04-17 06:58:00
3:15 AM,46.4,46.4,100,30.03,1.0,ENE,5.8,-,N/A,,Mist,70,2013-04-17 08:15:00
3:37 AM,46.4,46.4,100,30.03,0.8,ENE,4.6,-,N/A,,Mist,60,2013-04-17 08:37:00
3:57 AM,46.4,46.4,100,30.04,1.0,NE,4.6,-,N/A,,Mist,50,2013-04-17 08:57:00
3:58 AM,46.4,46.4,100,30.06,1.0,ENE,5.8,-,N/A,,Mist,60,2013-04-17 08:58:00
4:03 AM,46.4,46.4,100,30.03,1.0,ENE,4.6,-,N/A,,Mist,60,2013-04-17 09:03:00
4:18 AM,48.2,48.2,100,30.03,1.2,ENE,4.6,-,N/A,,Overcast,70,2013-04-17 09:18:00
4:23 AM,48.2,48.2,100,30.03,1.2,East,6.9,-,N/A,,Overcast,80,2013-04-17 09:23:00
4:58 AM,47.7,47.7,100,30.04,1.8,East,8.1,-,N/A,,Overcast,100,2013-04-17 09:58:00
5:03 AM,48.2,48.2,100,30.01,2.0,East,8.1,-,N/A,,Overcast,100,2013-04-17 10:03:00
5:58 AM,48.6,48.6,100,30.02,3.0,ESE,5.8,-,N/A,,Overcast,110,2013-04-17 10:58:00
6:03 AM,48.2,48.2,100,29.99,2.5,ESE,8.1,-,N/A,,Overcast,120,2013-04-17 11:03:00
6:18 AM,48.2,48.2,100,29.98,3.0,ESE,9.2,-,N/A,,Overcast,110,2013-04-17 11:18:00
6:28 AM,50.0,50.0,100,29.98,2.5,ESE,8.1,-,N/A,,Overcast,120,2013-04-17 11:28:00
6:58 AM,50.0,50.0,100,30.00,2.5,SE,6.9,-,N/A,,Overcast,130,2013-04-17 11:58:00
7:13 AM,50.0,50.0,100,29.98,1.5,SE,8.1,-,N/A,,Overcast,130,2013-04-17 12:13:00
7:23 AM,51.8,17.6,26,29.98,1.0,SE,8.1,-,N/A,,Haze,140,2013-04-17 12:23:00
7:28 AM,51.8,19.4,28,29.99,0.8,SE,6.9,-,N/A,,Haze,140,2013-04-17 12:28:00
7:58 AM,52.9,52.9,100,29.99,0.2,SE,5.8,-,N/A,Fog,Fog,130,2013-04-17 12:58:00
8:58 AM,57.7,57.7,100,29.99,0.5,SE,9.2,-,N/A,Fog,Fog,140,2013-04-17 13:58:00
9:13 AM,59.0,59.0,100,29.98,0.8,SSE,8.1,-,N/A,,Mist,150,2013-04-17 14:13:00
9:23 AM,60.8,60.8,100,29.98,2.0,SSE,8.1,-,N/A,,Overcast,150,2013-04-17 14:23:00
9:33 AM,60.8,60.8,100,29.97,3.0,SSE,10.4,-,N/A,,Overcast,150,2013-04-17 14:33:00
9:58 AM,63.3,63.3,100,29.98,4.0,SSE,9.2,-,N/A,,Overcast,150,2013-04-17 14:58:00
10:03 AM,64.4,64.4,100,29.97,6.0,SE,9.2,-,N/A,,Overcast,140,2013-04-17 15:03:00
10:18 AM,66.2,66.2,100,29.96,7.0,SSE,9.2,-,N/A,,Overcast,150,2013-04-17 15:18:00
10:33 AM,69.8,60.8,73,29.95,10.0,SSE,12.7,-,N/A,,Scattered Clouds,150,2013-04-17 15:33:00
10:58 AM,73.6,61.9,67,29.94,10.0,South,13.8,-,N/A,,Clear,170,2013-04-17 15:58:00
11:38 AM,78.8,64.4,61,29.93,10.0,South,13.8,20.7,N/A,,Mostly Cloudy,180,2013-04-17 16:38:00
11:48 AM,78.8,66.2,65,29.92,10.0,South,10.4,20.7,N/A,,Mostly Cloudy,170,2013-04-17 16:48:00
11:58 AM,80.2,65.7,61,29.91,10.0,SSW,11.5,20.7,N/A,,Mostly Cloudy,200,2013-04-17 16:58:00
12:58 PM,79.7,66.4,64,29.88,10.0,South,11.5,23.0,N/A,,Mostly Cloudy,180,2013-04-17 17:58:00
1:58 PM,82.4,65.7,57,29.85,10.0,South,13.8,24.2,N/A,,Scattered Clouds,170,2013-04-17 18:58:00
2:58 PM,84.0,63.9,51,29.81,10.0,South,19.6,27.6,N/A,,Partly Cloudy,170,2013-04-17 19:58:00
3:58 PM,84.6,63.9,50,29.77,10.0,South,17.3,27.6,N/A,,Partly Cloudy,170,2013-04-17 20:58:00
4:58 PM,81.7,63.5,54,29.75,10.0,SSE,19.6,28.8,N/A,,Clear,160,2013-04-17 21:58:00
5:58 PM,81.5,62.2,52,29.73,10.0,SSE,17.3,27.6,N/A,,Clear,160,2013-04-17 22:58:00
6:58 PM,80.2,62.4,54,29.72,10.0,South,19.6,38.0,N/A,,Clear,170,2013-04-17 23:58:00
7:58 PM,77.9,63.1,60,29.71,10.0,SSE,17.3,24.2,N/A,,Clear,160,2013-04-18 00:58:00
8:58 PM,76.3,63.5,64,29.70,10.0,SSE,16.1,23.0,N/A,,Clear,160,2013-04-18 01:58:00
9:58 PM,75.2,65.7,72,29.70,10.0,South,20.7,32.2,N/A,,Clear,170,2013-04-18 02:58:00
10:58 PM,73.9,66.4,77,29.67,10.0,South,23.0,33.4,N/A,,Clear,170,2013-04-18 03:58:00
11:58 PM,73.8,66.6,78,29.66,10.0,South,20.7,29.9,N/A,,Partly Cloudy,170,2013-04-18 04:58:00